sensor_id;sensor_type;location;lat;lon;timestamp;P1;durP1;ratioP1;P2;durP2;ratioP2
13102;SDS011;52970;46.752;17.108;2022-12-07T00:02:20;14.23;;;12.03;;
13102;SDS011;52970;46.752;17.108;2022-12-07T00:04:46;14.73;;;12.17;;
13102;SDS011;52970;46.752;17.108;2022-12-07T00:07:13;22.33;;;15.83;;
13102;SDS011;52970;46.752;17.108;2022-12-07T00:09:38;18.90;;;13.47;;
13102;SDS011;52970;46.752;17.108;2022-12-07T00:12:04;21.10;;;14.37;;
13102;SDS011;52970;46.752;17.108;2022-12-07T00:14:29;23.70;;;17.63;;
13102;SDS011;52970;46.752;17.108;2022-12-07T00:16:54;16.20;;;12.63;;
13102;SDS011;52970;46.752;17.108;2022-12-07T00:19:19;16.50;;;13.07;;
13102;SDS011;52970;46.752;17.108;2022-12-07T00:21:45;12.20;;;9.80;;
13102;SDS011;52970;46.752;17.108;2022-12-07T00:24:10;10.97;;;8.43;;
13102;SDS011;52970;46.752;17.108;2022-12-07T00:26:36;10.80;;;8.73;;
13102;SDS011;52970;46.752;17.108;2022-12-07T00:29:06;10.00;;;8.03;;
13102;SDS011;52970;46.752;17.108;2022-12-07T00:31:32;10.23;;;8.33;;
13102;SDS011;52970;46.752;17.108;2022-12-07T00:33:58;10.90;;;9.40;;
13102;SDS011;52970;46.752;17.108;2022-12-07T00:36:24;12.37;;;10.40;;
13102;SDS011;52970;46.752;17.108;2022-12-07T00:38:49;19.13;;;11.67;;
13102;SDS011;52970;46.752;17.108;2022-12-07T00:41:16;15.77;;;11.00;;
13102;SDS011;52970;46.752;17.108;2022-12-07T00:43:42;14.70;;;10.63;;
13102;SDS011;52970;46.752;17.108;2022-12-07T00:46:07;13.30;;;9.97;;
13102;SDS011;52970;46.752;17.108;2022-12-07T00:48:33;14.30;;;11.20;;
13102;SDS011;52970;46.752;17.108;2022-12-07T00:50:58;12.93;;;10.43;;
13102;SDS011;52970;46.752;17.108;2022-12-07T00:53:24;21.30;;;10.87;;
13102;SDS011;52970;46.752;17.108;2022-12-07T00:55:49;16.73;;;11.47;;
13102;SDS011;52970;46.752;17.108;2022-12-07T00:58:15;14.80;;;11.07;;
13102;SDS011;52970;46.752;17.108;2022-12-07T01:00:40;15.73;;;10.43;;
13102;SDS011;52970;46.752;17.108;2022-12-07T01:03:06;11.67;;;10.07;;
13102;SDS011;52970;46.752;17.108;2022-12-07T01:05:33;18.07;;;10.53;;
13102;SDS011;52970;46.752;17.108;2022-12-07T01:07:58;14.07;;;9.87;;
13102;SDS011;52970;46.752;17.108;2022-12-07T01:10:23;12.83;;;9.60;;
13102;SDS011;52970;46.752;17.108;2022-12-07T01:12:48;13.37;;;9.83;;
13102;SDS011;52970;46.752;17.108;2022-12-07T01:15:14;23.83;;;11.90;;
13102;SDS011;52970;46.752;17.108;2022-12-07T01:17:39;17.50;;;10.90;;
13102;SDS011;52970;46.752;17.108;2022-12-07T01:20:05;22.27;;;12.17;;
13102;SDS011;52970;46.752;17.108;2022-12-07T01:22:31;15.27;;;10.40;;
13102;SDS011;52970;46.752;17.108;2022-12-07T01:24:56;15.20;;;11.20;;
13102;SDS011;52970;46.752;17.108;2022-12-07T01:27:21;22.60;;;12.37;;
13102;SDS011;52970;46.752;17.108;2022-12-07T01:29:46;18.07;;;11.90;;
13102;SDS011;52970;46.752;17.108;2022-12-07T01:32:12;17.53;;;8.53;;
13102;SDS011;52970;46.752;17.108;2022-12-07T01:34:37;13.60;;;10.10;;
13102;SDS011;52970;46.752;17.108;2022-12-07T01:37:02;18.03;;;7.30;;
13102;SDS011;52970;46.752;17.108;2022-12-07T01:39:27;11.63;;;8.63;;
13102;SDS011;52970;46.752;17.108;2022-12-07T01:41:53;21.97;;;6.30;;
13102;SDS011;52970;46.752;17.108;2022-12-07T01:46:54;17.00;;;7.23;;
13102;SDS011;52970;46.752;17.108;2022-12-07T01:52:00;13.87;;;7.03;;
13102;SDS011;52970;46.752;17.108;2022-12-07T01:54:26;7.40;;;6.40;;
13102;SDS011;52970;46.752;17.108;2022-12-07T01:56:52;8.80;;;6.97;;
13102;SDS011;52970;46.752;17.108;2022-12-07T01:59:19;12.93;;;6.20;;
13102;SDS011;52970;46.752;17.108;2022-12-07T02:01:46;8.67;;;6.57;;
13102;SDS011;52970;46.752;17.108;2022-12-07T02:04:11;8.13;;;6.30;;
13102;SDS011;52970;46.752;17.108;2022-12-07T02:06:37;6.87;;;6.10;;
13102;SDS011;52970;46.752;17.108;2022-12-07T02:09:02;6.47;;;5.50;;
13102;SDS011;52970;46.752;17.108;2022-12-07T02:11:27;7.53;;;5.80;;
13102;SDS011;52970;46.752;17.108;2022-12-07T02:13:53;7.73;;;6.03;;
13102;SDS011;52970;46.752;17.108;2022-12-07T02:29:23;8.13;;;5.70;;
13102;SDS011;52970;46.752;17.108;2022-12-07T02:34:38;7.57;;;5.63;;
13102;SDS011;52970;46.752;17.108;2022-12-07T02:37:08;6.83;;;5.63;;
13102;SDS011;52970;46.752;17.108;2022-12-07T02:39:37;10.13;;;6.50;;
13102;SDS011;52970;46.752;17.108;2022-12-07T02:42:08;12.47;;;6.37;;
13102;SDS011;52970;46.752;17.108;2022-12-07T02:44:35;16.40;;;6.53;;
13102;SDS011;52970;46.752;17.108;2022-12-07T02:47:02;9.43;;;5.73;;
13102;SDS011;52970;46.752;17.108;2022-12-07T02:49:29;8.57;;;6.07;;
13102;SDS011;52970;46.752;17.108;2022-12-07T02:51:55;9.90;;;5.80;;
13102;SDS011;52970;46.752;17.108;2022-12-07T02:54:20;9.67;;;6.07;;
13102;SDS011;52970;46.752;17.108;2022-12-07T03:06:56;7.00;;;5.87;;
13102;SDS011;52970;46.752;17.108;2022-12-07T03:10:28;7.57;;;6.07;;
13102;SDS011;52970;46.752;17.108;2022-12-07T03:12:21;9.13;;;6.93;;
13102;SDS011;52970;46.752;17.108;2022-12-07T03:14:49;9.37;;;6.07;;
13102;SDS011;52970;46.752;17.108;2022-12-07T03:17:21;7.27;;;6.00;;
13102;SDS011;52970;46.752;17.108;2022-12-07T03:19:48;7.23;;;6.37;;
13102;SDS011;52970;46.752;17.108;2022-12-07T03:22:14;9.10;;;7.53;;
13102;SDS011;52970;46.752;17.108;2022-12-07T03:24:51;10.13;;;7.00;;
13102;SDS011;52970;46.752;17.108;2022-12-07T03:30:18;9.43;;;6.83;;
13102;SDS011;52970;46.752;17.108;2022-12-07T03:32:54;8.23;;;6.53;;
13102;SDS011;52970;46.752;17.108;2022-12-07T03:35:27;6.63;;;5.90;;
13102;SDS011;52970;46.752;17.108;2022-12-07T03:37:58;7.40;;;6.33;;
13102;SDS011;52970;46.752;17.108;2022-12-07T03:40:35;7.07;;;5.80;;
13102;SDS011;52970;46.752;17.108;2022-12-07T03:43:03;7.47;;;6.00;;
13102;SDS011;52970;46.752;17.108;2022-12-07T03:45:39;7.17;;;6.20;;
13102;SDS011;52970;46.752;17.108;2022-12-07T03:53:33;6.27;;;5.43;;
13102;SDS011;52970;46.752;17.108;2022-12-07T03:56:01;6.30;;;5.70;;
13102;SDS011;52970;46.752;17.108;2022-12-07T03:58:27;6.17;;;5.57;;
13102;SDS011;52970;46.752;17.108;2022-12-07T04:00:53;7.80;;;5.97;;
13102;SDS011;52970;46.752;17.108;2022-12-07T04:03:18;6.70;;;6.00;;
13102;SDS011;52970;46.752;17.108;2022-12-07T04:05:43;7.50;;;6.23;;
13102;SDS011;52970;46.752;17.108;2022-12-07T04:08:09;6.93;;;6.17;;
13102;SDS011;52970;46.752;17.108;2022-12-07T04:10:35;7.57;;;5.90;;
13102;SDS011;52970;46.752;17.108;2022-12-07T04:13:00;7.53;;;6.23;;
13102;SDS011;52970;46.752;17.108;2022-12-07T04:15:25;8.07;;;5.93;;
13102;SDS011;52970;46.752;17.108;2022-12-07T04:17:51;7.23;;;6.43;;
13102;SDS011;52970;46.752;17.108;2022-12-07T04:20:16;7.23;;;6.03;;
13102;SDS011;52970;46.752;17.108;2022-12-07T04:22:41;8.43;;;6.70;;
13102;SDS011;52970;46.752;17.108;2022-12-07T04:25:07;10.00;;;7.30;;
13102;SDS011;52970;46.752;17.108;2022-12-07T04:27:32;7.87;;;6.10;;
13102;SDS011;52970;46.752;17.108;2022-12-07T04:29:58;8.27;;;6.27;;
13102;SDS011;52970;46.752;17.108;2022-12-07T04:32:23;8.10;;;6.10;;
13102;SDS011;52970;46.752;17.108;2022-12-07T04:34:49;8.57;;;6.30;;
13102;SDS011;52970;46.752;17.108;2022-12-07T04:37:14;7.40;;;6.57;;
13102;SDS011;52970;46.752;17.108;2022-12-07T04:39:40;11.23;;;8.23;;
13102;SDS011;52970;46.752;17.108;2022-12-07T04:42:05;7.77;;;6.50;;
13102;SDS011;52970;46.752;17.108;2022-12-07T04:44:30;9.10;;;7.00;;
13102;SDS011;52970;46.752;17.108;2022-12-07T04:46:56;8.80;;;6.87;;
13102;SDS011;52970;46.752;17.108;2022-12-07T04:49:22;16.27;;;11.70;;
13102;SDS011;52970;46.752;17.108;2022-12-07T04:51:47;13.70;;;10.33;;
13102;SDS011;52970;46.752;17.108;2022-12-07T04:54:13;16.50;;;12.23;;
13102;SDS011;52970;46.752;17.108;2022-12-07T04:56:38;14.10;;;11.27;;
13102;SDS011;52970;46.752;17.108;2022-12-07T04:59:04;14.43;;;11.00;;
13102;SDS011;52970;46.752;17.108;2022-12-07T05:01:29;13.27;;;9.40;;
13102;SDS011;52970;46.752;17.108;2022-12-07T05:03:55;12.53;;;9.40;;
13102;SDS011;52970;46.752;17.108;2022-12-07T05:06:20;14.33;;;9.13;;
13102;SDS011;52970;46.752;17.108;2022-12-07T05:08:45;13.13;;;9.07;;
13102;SDS011;52970;46.752;17.108;2022-12-07T05:11:11;16.00;;;11.00;;
13102;SDS011;52970;46.752;17.108;2022-12-07T05:13:55;16.47;;;10.50;;
13102;SDS011;52970;46.752;17.108;2022-12-07T05:16:20;18.00;;;11.97;;
13102;SDS011;52970;46.752;17.108;2022-12-07T05:18:46;20.10;;;13.43;;
13102;SDS011;52970;46.752;17.108;2022-12-07T05:21:11;15.77;;;9.63;;
13102;SDS011;52970;46.752;17.108;2022-12-07T05:23:36;12.03;;;9.70;;
13102;SDS011;52970;46.752;17.108;2022-12-07T05:26:01;13.83;;;8.60;;
13102;SDS011;52970;46.752;17.108;2022-12-07T05:28:27;10.97;;;8.60;;
13102;SDS011;52970;46.752;17.108;2022-12-07T05:30:52;12.40;;;7.47;;
13102;SDS011;52970;46.752;17.108;2022-12-07T05:33:17;10.80;;;8.23;;
13102;SDS011;52970;46.752;17.108;2022-12-07T05:35:42;14.20;;;9.50;;
13102;SDS011;52970;46.752;17.108;2022-12-07T05:38:08;22.23;;;13.27;;
13102;SDS011;52970;46.752;17.108;2022-12-07T05:40:33;16.50;;;12.80;;
13102;SDS011;52970;46.752;17.108;2022-12-07T05:42:58;13.30;;;9.90;;
13102;SDS011;52970;46.752;17.108;2022-12-07T05:45:23;12.27;;;9.80;;
13102;SDS011;52970;46.752;17.108;2022-12-07T05:47:49;38.37;;;34.40;;
13102;SDS011;52970;46.752;17.108;2022-12-07T05:50:14;14.27;;;11.50;;
13102;SDS011;52970;46.752;17.108;2022-12-07T05:52:39;13.03;;;10.67;;
13102;SDS011;52970;46.752;17.108;2022-12-07T05:55:04;10.33;;;8.27;;
13102;SDS011;52970;46.752;17.108;2022-12-07T05:57:31;9.57;;;8.57;;
13102;SDS011;52970;46.752;17.108;2022-12-07T05:59:57;8.03;;;6.70;;
13102;SDS011;52970;46.752;17.108;2022-12-07T06:02:22;10.43;;;9.33;;
13102;SDS011;52970;46.752;17.108;2022-12-07T06:04:47;12.63;;;8.93;;
13102;SDS011;52970;46.752;17.108;2022-12-07T06:07:13;12.60;;;9.20;;
13102;SDS011;52970;46.752;17.108;2022-12-07T06:09:39;9.83;;;8.77;;
13102;SDS011;52970;46.752;17.108;2022-12-07T06:12:05;9.47;;;8.37;;
13102;SDS011;52970;46.752;17.108;2022-12-07T06:14:49;14.47;;;12.63;;
13102;SDS011;52970;46.752;17.108;2022-12-07T06:17:14;13.67;;;11.13;;
13102;SDS011;52970;46.752;17.108;2022-12-07T06:19:39;13.27;;;11.47;;
13102;SDS011;52970;46.752;17.108;2022-12-07T06:22:05;11.67;;;10.37;;
13102;SDS011;52970;46.752;17.108;2022-12-07T06:24:30;13.13;;;11.10;;
13102;SDS011;52970;46.752;17.108;2022-12-07T06:26:56;21.53;;;19.03;;
13102;SDS011;52970;46.752;17.108;2022-12-07T06:29:21;29.70;;;23.60;;
13102;SDS011;52970;46.752;17.108;2022-12-07T06:31:47;22.53;;;18.97;;
13102;SDS011;52970;46.752;17.108;2022-12-07T06:34:13;29.20;;;21.97;;
13102;SDS011;52970;46.752;17.108;2022-12-07T06:36:39;23.53;;;18.80;;
13102;SDS011;52970;46.752;17.108;2022-12-07T06:39:04;18.97;;;16.47;;
13102;SDS011;52970;46.752;17.108;2022-12-07T06:41:30;22.47;;;14.77;;
13102;SDS011;52970;46.752;17.108;2022-12-07T06:43:55;16.00;;;11.50;;
13102;SDS011;52970;46.752;17.108;2022-12-07T06:46:20;15.33;;;12.63;;
13102;SDS011;52970;46.752;17.108;2022-12-07T06:48:46;13.63;;;10.90;;
13102;SDS011;52970;46.752;17.108;2022-12-07T06:51:11;10.63;;;9.10;;
13102;SDS011;52970;46.752;17.108;2022-12-07T06:53:36;12.03;;;9.17;;
13102;SDS011;52970;46.752;17.108;2022-12-07T06:56:02;11.30;;;8.57;;
13102;SDS011;52970;46.752;17.108;2022-12-07T06:58:27;10.53;;;8.13;;
13102;SDS011;52970;46.752;17.108;2022-12-07T07:00:54;8.90;;;7.20;;
13102;SDS011;52970;46.752;17.108;2022-12-07T07:03:19;11.37;;;8.50;;
13102;SDS011;52970;46.752;17.108;2022-12-07T07:05:44;8.57;;;6.70;;
13102;SDS011;52970;46.752;17.108;2022-12-07T07:08:10;10.13;;;6.73;;
13102;SDS011;52970;46.752;17.108;2022-12-07T07:10:35;9.47;;;6.67;;
13102;SDS011;52970;46.752;17.108;2022-12-07T07:13:01;9.53;;;7.20;;
13102;SDS011;52970;46.752;17.108;2022-12-07T07:15:27;8.40;;;6.77;;
13102;SDS011;52970;46.752;17.108;2022-12-07T07:17:52;11.10;;;7.33;;
13102;SDS011;52970;46.752;17.108;2022-12-07T07:20:18;8.70;;;6.90;;
13102;SDS011;52970;46.752;17.108;2022-12-07T07:22:43;14.00;;;9.90;;
13102;SDS011;52970;46.752;17.108;2022-12-07T07:25:08;15.60;;;13.67;;
13102;SDS011;52970;46.752;17.108;2022-12-07T07:27:34;12.00;;;9.73;;
13102;SDS011;52970;46.752;17.108;2022-12-07T07:29:59;12.10;;;9.20;;
13102;SDS011;52970;46.752;17.108;2022-12-07T07:32:24;11.23;;;9.00;;
13102;SDS011;52970;46.752;17.108;2022-12-07T07:34:49;9.63;;;7.57;;
13102;SDS011;52970;46.752;17.108;2022-12-07T07:37:16;9.57;;;7.87;;
13102;SDS011;52970;46.752;17.108;2022-12-07T07:39:41;13.67;;;10.53;;
13102;SDS011;52970;46.752;17.108;2022-12-07T07:42:07;12.90;;;9.97;;
13102;SDS011;52970;46.752;17.108;2022-12-07T07:44:32;11.77;;;7.97;;
13102;SDS011;52970;46.752;17.108;2022-12-07T07:46:58;11.47;;;8.80;;
13102;SDS011;52970;46.752;17.108;2022-12-07T07:49:23;8.97;;;7.93;;
13102;SDS011;52970;46.752;17.108;2022-12-07T07:51:48;9.80;;;7.57;;
13102;SDS011;52970;46.752;17.108;2022-12-07T07:54:13;12.60;;;9.27;;
13102;SDS011;52970;46.752;17.108;2022-12-07T07:56:39;12.00;;;9.77;;
13102;SDS011;52970;46.752;17.108;2022-12-07T07:59:04;12.07;;;9.27;;
13102;SDS011;52970;46.752;17.108;2022-12-07T08:01:29;12.77;;;9.23;;
13102;SDS011;52970;46.752;17.108;2022-12-07T08:03:54;10.87;;;8.90;;
13102;SDS011;52970;46.752;17.108;2022-12-07T08:06:20;11.23;;;8.73;;
13102;SDS011;52970;46.752;17.108;2022-12-07T08:08:45;10.67;;;8.07;;
13102;SDS011;52970;46.752;17.108;2022-12-07T08:11:10;12.73;;;8.90;;
13102;SDS011;52970;46.752;17.108;2022-12-07T08:13:36;12.77;;;9.33;;
13102;SDS011;52970;46.752;17.108;2022-12-07T08:16:05;12.33;;;8.93;;
13102;SDS011;52970;46.752;17.108;2022-12-07T08:18:30;11.57;;;8.43;;
13102;SDS011;52970;46.752;17.108;2022-12-07T08:21:02;10.43;;;8.33;;
13102;SDS011;52970;46.752;17.108;2022-12-07T08:23:27;10.03;;;8.33;;
13102;SDS011;52970;46.752;17.108;2022-12-07T08:25:53;12.10;;;9.23;;
13102;SDS011;52970;46.752;17.108;2022-12-07T08:28:18;10.73;;;8.70;;
13102;SDS011;52970;46.752;17.108;2022-12-07T08:30:43;12.03;;;8.33;;
13102;SDS011;52970;46.752;17.108;2022-12-07T08:33:09;9.97;;;7.87;;
13102;SDS011;52970;46.752;17.108;2022-12-07T08:35:35;10.03;;;8.00;;
13102;SDS011;52970;46.752;17.108;2022-12-07T08:38:00;11.97;;;8.37;;
13102;SDS011;52970;46.752;17.108;2022-12-07T08:40:27;12.47;;;9.03;;
13102;SDS011;52970;46.752;17.108;2022-12-07T08:42:52;12.27;;;9.00;;
13102;SDS011;52970;46.752;17.108;2022-12-07T08:45:18;10.83;;;9.20;;
13102;SDS011;52970;46.752;17.108;2022-12-07T08:50:15;8.60;;;7.67;;
13102;SDS011;52970;46.752;17.108;2022-12-07T08:52:40;9.67;;;7.97;;
13102;SDS011;52970;46.752;17.108;2022-12-07T08:55:06;9.23;;;8.07;;
13102;SDS011;52970;46.752;17.108;2022-12-07T08:57:33;13.13;;;9.50;;
13102;SDS011;52970;46.752;17.108;2022-12-07T08:59:59;11.90;;;9.30;;
13102;SDS011;52970;46.752;17.108;2022-12-07T09:02:24;10.13;;;7.90;;
13102;SDS011;52970;46.752;17.108;2022-12-07T09:04:49;10.37;;;8.83;;
13102;SDS011;52970;46.752;17.108;2022-12-07T09:07:14;11.03;;;8.67;;
13102;SDS011;52970;46.752;17.108;2022-12-07T09:09:40;12.30;;;8.77;;
13102;SDS011;52970;46.752;17.108;2022-12-07T09:12:05;17.17;;;11.87;;
13102;SDS011;52970;46.752;17.108;2022-12-07T09:14:30;13.23;;;9.77;;
13102;SDS011;52970;46.752;17.108;2022-12-07T09:17:04;12.33;;;9.87;;
13102;SDS011;52970;46.752;17.108;2022-12-07T09:19:30;10.67;;;8.60;;
13102;SDS011;52970;46.752;17.108;2022-12-07T09:21:55;12.90;;;10.97;;
13102;SDS011;52970;46.752;17.108;2022-12-07T09:24:20;12.50;;;9.53;;
13102;SDS011;52970;46.752;17.108;2022-12-07T09:26:45;14.37;;;10.90;;
13102;SDS011;52970;46.752;17.108;2022-12-07T09:29:11;12.77;;;9.70;;
13102;SDS011;52970;46.752;17.108;2022-12-07T09:31:36;13.00;;;9.77;;
13102;SDS011;52970;46.752;17.108;2022-12-07T09:34:02;13.80;;;10.53;;
13102;SDS011;52970;46.752;17.108;2022-12-07T09:36:27;15.23;;;10.80;;
13102;SDS011;52970;46.752;17.108;2022-12-07T09:38:53;13.37;;;9.93;;
13102;SDS011;52970;46.752;17.108;2022-12-07T09:41:18;13.57;;;9.67;;
13102;SDS011;52970;46.752;17.108;2022-12-07T09:43:44;12.30;;;9.27;;
13102;SDS011;52970;46.752;17.108;2022-12-07T09:46:13;16.70;;;14.57;;
13102;SDS011;52970;46.752;17.108;2022-12-07T09:48:39;14.87;;;11.73;;
13102;SDS011;52970;46.752;17.108;2022-12-07T09:51:19;18.57;;;15.67;;
13102;SDS011;52970;46.752;17.108;2022-12-07T09:53:45;15.13;;;11.80;;
13102;SDS011;52970;46.752;17.108;2022-12-07T09:56:11;19.87;;;12.90;;
13102;SDS011;52970;46.752;17.108;2022-12-07T09:58:38;15.63;;;11.43;;
13102;SDS011;52970;46.752;17.108;2022-12-07T10:01:15;19.60;;;13.57;;
13102;SDS011;52970;46.752;17.108;2022-12-07T10:03:42;16.73;;;12.20;;
13102;SDS011;52970;46.752;17.108;2022-12-07T10:06:10;16.57;;;11.47;;
13102;SDS011;52970;46.752;17.108;2022-12-07T10:08:36;16.90;;;12.10;;
13102;SDS011;52970;46.752;17.108;2022-12-07T10:11:04;17.13;;;12.00;;
13102;SDS011;52970;46.752;17.108;2022-12-07T10:13:45;16.63;;;11.30;;
13102;SDS011;52970;46.752;17.108;2022-12-07T10:18:53;13.30;;;10.43;;
13102;SDS011;52970;46.752;17.108;2022-12-07T10:21:22;14.30;;;10.97;;
13102;SDS011;52970;46.752;17.108;2022-12-07T10:24:01;13.10;;;10.80;;
13102;SDS011;52970;46.752;17.108;2022-12-07T10:26:35;14.27;;;10.83;;
13102;SDS011;52970;46.752;17.108;2022-12-07T10:29:01;16.00;;;12.87;;
13102;SDS011;52970;46.752;17.108;2022-12-07T10:31:27;14.87;;;11.20;;
13102;SDS011;52970;46.752;17.108;2022-12-07T10:34:00;16.00;;;11.77;;
13102;SDS011;52970;46.752;17.108;2022-12-07T10:36:26;17.50;;;12.80;;
13102;SDS011;52970;46.752;17.108;2022-12-07T10:38:59;17.20;;;11.33;;
13102;SDS011;52970;46.752;17.108;2022-12-07T10:41:25;15.73;;;11.37;;
13102;SDS011;52970;46.752;17.108;2022-12-07T10:43:51;16.77;;;12.10;;
13102;SDS011;52970;46.752;17.108;2022-12-07T10:46:34;19.00;;;13.03;;
13102;SDS011;52970;46.752;17.108;2022-12-07T11:16:49;13.33;;;10.70;;
13102;SDS011;52970;46.752;17.108;2022-12-07T11:22:00;14.47;;;10.50;;
13102;SDS011;52970;46.752;17.108;2022-12-07T11:24:37;13.70;;;10.97;;
13102;SDS011;52970;46.752;17.108;2022-12-07T11:34:43;15.23;;;11.57;;
13102;SDS011;52970;46.752;17.108;2022-12-07T11:37:13;16.27;;;11.63;;
13102;SDS011;52970;46.752;17.108;2022-12-07T11:39:48;15.57;;;11.80;;
13102;SDS011;52970;46.752;17.108;2022-12-07T11:49:41;14.80;;;10.73;;
13102;SDS011;52970;46.752;17.108;2022-12-07T11:52:11;13.30;;;10.50;;
13102;SDS011;52970;46.752;17.108;2022-12-07T11:54:40;15.27;;;11.10;;
13102;SDS011;52970;46.752;17.108;2022-12-07T11:57:12;14.73;;;10.63;;
13102;SDS011;52970;46.752;17.108;2022-12-07T11:59:50;13.77;;;10.30;;
13102;SDS011;52970;46.752;17.108;2022-12-07T12:02:22;15.47;;;11.50;;
13102;SDS011;52970;46.752;17.108;2022-12-07T12:07:23;15.30;;;11.33;;
13102;SDS011;52970;46.752;17.108;2022-12-07T12:09:50;12.40;;;10.67;;
13102;SDS011;52970;46.752;17.108;2022-12-07T12:20:06;16.97;;;13.30;;
13102;SDS011;52970;46.752;17.108;2022-12-07T12:22:41;16.73;;;12.57;;
13102;SDS011;52970;46.752;17.108;2022-12-07T12:25:15;17.07;;;11.80;;
13102;SDS011;52970;46.752;17.108;2022-12-07T12:27:44;18.07;;;12.93;;
13102;SDS011;52970;46.752;17.108;2022-12-07T12:30:24;19.80;;;13.90;;
13102;SDS011;52970;46.752;17.108;2022-12-07T12:32:50;17.30;;;13.97;;
13102;SDS011;52970;46.752;17.108;2022-12-07T12:35:35;16.43;;;12.80;;
13102;SDS011;52970;46.752;17.108;2022-12-07T12:40:41;21.63;;;14.40;;
13102;SDS011;52970;46.752;17.108;2022-12-07T12:43:38;19.00;;;13.90;;
13102;SDS011;52970;46.752;17.108;2022-12-07T12:46:10;22.47;;;16.20;;
13102;SDS011;52970;46.752;17.108;2022-12-07T12:48:37;22.17;;;16.17;;
13102;SDS011;52970;46.752;17.108;2022-12-07T12:54:03;18.57;;;14.73;;
13102;SDS011;52970;46.752;17.108;2022-12-07T12:56:35;20.03;;;15.07;;
13102;SDS011;52970;46.752;17.108;2022-12-07T13:01:43;18.43;;;14.07;;
13102;SDS011;52970;46.752;17.108;2022-12-07T13:07:01;15.97;;;12.43;;
13102;SDS011;52970;46.752;17.108;2022-12-07T13:09:27;17.10;;;12.83;;
13102;SDS011;52970;46.752;17.108;2022-12-07T13:11:57;16.07;;;11.87;;
13102;SDS011;52970;46.752;17.108;2022-12-07T13:17:54;16.93;;;12.73;;
13102;SDS011;52970;46.752;17.108;2022-12-07T13:19:54;17.50;;;12.10;;
13102;SDS011;52970;46.752;17.108;2022-12-07T13:24:57;17.83;;;12.43;;
13102;SDS011;52970;46.752;17.108;2022-12-07T13:27:24;15.77;;;12.40;;
13102;SDS011;52970;46.752;17.108;2022-12-07T13:29:50;15.97;;;12.50;;
13102;SDS011;52970;46.752;17.108;2022-12-07T13:32:23;18.07;;;13.17;;
13102;SDS011;52970;46.752;17.108;2022-12-07T13:34:48;18.63;;;12.90;;
13102;SDS011;52970;46.752;17.108;2022-12-07T13:39:49;20.30;;;15.70;;
13102;SDS011;52970;46.752;17.108;2022-12-07T13:42:19;18.85;;;13.85;;
13102;SDS011;52970;46.752;17.108;2022-12-07T13:44:47;17.80;;;13.33;;
13102;SDS011;52970;46.752;17.108;2022-12-07T13:47:13;19.67;;;14.30;;
13102;SDS011;52970;46.752;17.108;2022-12-07T13:49:51;18.97;;;13.73;;
13102;SDS011;52970;46.752;17.108;2022-12-07T13:55:24;15.53;;;12.10;;
13102;SDS011;52970;46.752;17.108;2022-12-07T13:57:30;15.43;;;12.53;;
13102;SDS011;52970;46.752;17.108;2022-12-07T13:59:57;15.48;;;12.00;;
13102;SDS011;52970;46.752;17.108;2022-12-07T14:04:49;21.35;;;15.35;;
13102;SDS011;52970;46.752;17.108;2022-12-07T14:07:20;20.52;;;15.30;;
13102;SDS011;52970;46.752;17.108;2022-12-07T14:12:19;15.23;;;11.68;;
13102;SDS011;52970;46.752;17.108;2022-12-07T14:14:48;14.57;;;11.70;;
13102;SDS011;52970;46.752;17.108;2022-12-07T14:17:17;15.18;;;11.02;;
13102;SDS011;52970;46.752;17.108;2022-12-07T14:22:09;13.75;;;11.27;;
13102;SDS011;52970;46.752;17.108;2022-12-07T14:24:41;15.40;;;12.07;;
13102;SDS011;52970;46.752;17.108;2022-12-07T14:27:15;16.52;;;12.15;;
13102;SDS011;52970;46.752;17.108;2022-12-07T14:29:41;14.80;;;11.02;;
13102;SDS011;52970;46.752;17.108;2022-12-07T14:32:28;14.43;;;11.27;;
13102;SDS011;52970;46.752;17.108;2022-12-07T14:37:29;16.02;;;11.50;;
13102;SDS011;52970;46.752;17.108;2022-12-07T14:39:54;16.70;;;12.07;;
13102;SDS011;52970;46.752;17.108;2022-12-07T14:42:20;16.48;;;12.65;;
13102;SDS011;52970;46.752;17.108;2022-12-07T14:44:46;15.65;;;11.63;;
13102;SDS011;52970;46.752;17.108;2022-12-07T14:47:12;15.02;;;11.57;;
13102;SDS011;52970;46.752;17.108;2022-12-07T14:49:37;15.20;;;11.77;;
13102;SDS011;52970;46.752;17.108;2022-12-07T14:52:03;14.30;;;11.57;;
13102;SDS011;52970;46.752;17.108;2022-12-07T14:54:30;15.33;;;11.80;;
13102;SDS011;52970;46.752;17.108;2022-12-07T14:56:56;16.10;;;11.60;;
13102;SDS011;52970;46.752;17.108;2022-12-07T14:59:21;15.90;;;12.30;;
13102;SDS011;52970;46.752;17.108;2022-12-07T15:01:46;18.40;;;12.70;;
13102;SDS011;52970;46.752;17.108;2022-12-07T15:04:12;16.90;;;13.10;;
13102;SDS011;52970;46.752;17.108;2022-12-07T15:06:37;17.80;;;12.25;;
13102;SDS011;52970;46.752;17.108;2022-12-07T15:09:03;15.43;;;11.70;;
13102;SDS011;52970;46.752;17.108;2022-12-07T15:11:28;17.57;;;12.70;;
13102;SDS011;52970;46.752;17.108;2022-12-07T15:13:53;18.40;;;12.30;;
13102;SDS011;52970;46.752;17.108;2022-12-07T15:16:34;17.60;;;11.75;;
13102;SDS011;52970;46.752;17.108;2022-12-07T15:18:59;16.57;;;12.47;;
13102;SDS011;52970;46.752;17.108;2022-12-07T15:21:25;20.47;;;12.13;;
13102;SDS011;52970;46.752;17.108;2022-12-07T15:23:50;17.50;;;11.20;;
13102;SDS011;52970;46.752;17.108;2022-12-07T15:26:15;17.30;;;12.23;;
13102;SDS011;52970;46.752;17.108;2022-12-07T15:28:41;17.73;;;11.63;;
13102;SDS011;52970;46.752;17.108;2022-12-07T15:31:15;18.98;;;14.20;;
13102;SDS011;52970;46.752;17.108;2022-12-07T15:33:41;16.70;;;12.17;;
13102;SDS011;52970;46.752;17.108;2022-12-07T15:36:06;17.67;;;12.37;;
13102;SDS011;52970;46.752;17.108;2022-12-07T15:38:32;16.53;;;11.77;;
13102;SDS011;52970;46.752;17.108;2022-12-07T15:40:57;16.03;;;12.43;;
13102;SDS011;52970;46.752;17.108;2022-12-07T15:43:22;16.90;;;12.00;;
13102;SDS011;52970;46.752;17.108;2022-12-07T15:46:06;20.37;;;13.30;;
13102;SDS011;52970;46.752;17.108;2022-12-07T15:48:31;18.50;;;13.13;;
13102;SDS011;52970;46.752;17.108;2022-12-07T15:51:06;16.60;;;12.40;;
13102;SDS011;52970;46.752;17.108;2022-12-07T15:53:32;16.33;;;12.37;;
13102;SDS011;52970;46.752;17.108;2022-12-07T15:55:58;17.03;;;12.10;;
13102;SDS011;52970;46.752;17.108;2022-12-07T15:58:23;18.70;;;13.30;;
13102;SDS011;52970;46.752;17.108;2022-12-07T16:00:48;17.93;;;12.53;;
13102;SDS011;52970;46.752;17.108;2022-12-07T16:03:14;17.90;;;12.67;;
13102;SDS011;52970;46.752;17.108;2022-12-07T16:05:39;19.00;;;12.67;;
13102;SDS011;52970;46.752;17.108;2022-12-07T16:08:04;18.90;;;14.13;;
13102;SDS011;52970;46.752;17.108;2022-12-07T16:10:30;16.23;;;12.83;;
13102;SDS011;52970;46.752;17.108;2022-12-07T16:12:55;18.97;;;13.40;;
13102;SDS011;52970;46.752;17.108;2022-12-07T16:15:20;19.20;;;13.07;;
13102;SDS011;52970;46.752;17.108;2022-12-07T16:17:45;19.90;;;13.50;;
13102;SDS011;52970;46.752;17.108;2022-12-07T16:20:11;23.83;;;14.80;;
13102;SDS011;52970;46.752;17.108;2022-12-07T16:22:36;25.47;;;15.43;;
13102;SDS011;52970;46.752;17.108;2022-12-07T16:25:02;21.93;;;15.07;;
13102;SDS011;52970;46.752;17.108;2022-12-07T16:27:27;26.87;;;15.73;;
13102;SDS011;52970;46.752;17.108;2022-12-07T16:29:52;23.93;;;15.30;;